sensor_id;sensor_type;location;lat;lon;timestamp;P1;durP1;ratioP1;P2;durP2;ratioP2
15183;SDS011;7693;49.266;7.104;2023-02-24T06:04:01;43.47;;;23.20;;
15183;SDS011;7693;49.266;7.104;2023-02-24T06:08:59;46.07;;;23.03;;
15183;SDS011;7693;49.266;7.104;2023-02-24T06:11:31;45.07;;;23.13;;
15183;SDS011;7693;49.266;7.104;2023-02-24T06:13:57;45.67;;;23.23;;
15183;SDS011;7693;49.266;7.104;2023-02-24T06:16:22;41.67;;;22.93;;
15183;SDS011;7693;49.266;7.104;2023-02-24T06:18:51;42.83;;;23.00;;
15183;SDS011;7693;49.266;7.104;2023-02-24T06:21:17;45.63;;;23.37;;
15183;SDS011;7693;49.266;7.104;2023-02-24T06:23:43;41.73;;;22.07;;
15183;SDS011;7693;49.266;7.104;2023-02-24T06:26:09;40.13;;;23.80;;
15183;SDS011;7693;49.266;7.104;2023-02-24T06:28:43;43.73;;;23.67;;
15183;SDS011;7693;49.266;7.104;2023-02-24T06:31:10;38.70;;;21.87;;
15183;SDS011;7693;49.266;7.104;2023-02-24T06:33:38;42.20;;;23.10;;
15183;SDS011;7693;49.266;7.104;2023-02-24T06:36:04;41.20;;;22.13;;
15183;SDS011;7693;49.266;7.104;2023-02-24T06:38:31;40.10;;;22.70;;
15183;SDS011;7693;49.266;7.104;2023-02-24T06:40:58;41.33;;;21.97;;
15183;SDS011;7693;49.266;7.104;2023-02-24T06:43:28;36.50;;;21.17;;
15183;SDS011;7693;49.266;7.104;2023-02-24T06:45:54;39.27;;;21.87;;
15183;SDS011;7693;49.266;7.104;2023-02-24T06:48:19;38.53;;;21.77;;
15183;SDS011;7693;49.266;7.104;2023-02-24T06:50:47;40.40;;;21.40;;
15183;SDS011;7693;49.266;7.104;2023-02-24T06:53:14;38.63;;;21.13;;
15183;SDS011;7693;49.266;7.104;2023-02-24T06:55:41;37.10;;;21.03;;
15183;SDS011;7693;49.266;7.104;2023-02-24T06:58:12;42.33;;;21.93;;
15183;SDS011;7693;49.266;7.104;2023-02-24T07:00:40;39.03;;;21.47;;
15183;SDS011;7693;49.266;7.104;2023-02-24T07:03:14;38.30;;;21.57;;
15183;SDS011;7693;49.266;7.104;2023-02-24T07:05:48;37.47;;;20.80;;
15183;SDS011;7693;49.266;7.104;2023-02-24T07:08:21;37.90;;;22.73;;
15183;SDS011;7693;49.266;7.104;2023-02-24T07:10:52;40.87;;;23.73;;
15183;SDS011;7693;49.266;7.104;2023-02-24T07:13:25;44.30;;;23.87;;
15183;SDS011;7693;49.266;7.104;2023-02-24T07:15:54;45.97;;;24.43;;
15183;SDS011;7693;49.266;7.104;2023-02-24T07:18:20;44.43;;;22.43;;
15183;SDS011;7693;49.266;7.104;2023-02-24T07:20:47;42.97;;;24.90;;
15183;SDS011;7693;49.266;7.104;2023-02-24T07:23:13;41.70;;;23.03;;
15183;SDS011;7693;49.266;7.104;2023-02-24T07:25:41;42.13;;;23.40;;
15183;SDS011;7693;49.266;7.104;2023-02-24T07:28:08;49.40;;;24.77;;
15183;SDS011;7693;49.266;7.104;2023-02-24T07:30:35;49.93;;;27.83;;
15183;SDS011;7693;49.266;7.104;2023-02-24T07:33:02;47.70;;;26.37;;
15183;SDS011;7693;49.266;7.104;2023-02-24T07:35:28;51.37;;;28.17;;
15183;SDS011;7693;49.266;7.104;2023-02-24T07:37:54;56.73;;;31.43;;
15183;SDS011;7693;49.266;7.104;2023-02-24T07:40:27;60.13;;;32.97;;
15183;SDS011;7693;49.266;7.104;2023-02-24T07:42:53;61.40;;;30.70;;
15183;SDS011;7693;49.266;7.104;2023-02-24T07:45:21;55.00;;;29.80;;
15183;SDS011;7693;49.266;7.104;2023-02-24T07:47:47;56.53;;;30.13;;
15183;SDS011;7693;49.266;7.104;2023-02-24T07:50:13;60.87;;;33.63;;
15183;SDS011;7693;49.266;7.104;2023-02-24T07:52:42;59.80;;;32.50;;
15183;SDS011;7693;49.266;7.104;2023-02-24T07:55:09;55.57;;;29.03;;
15183;SDS011;7693;49.266;7.104;2023-02-24T07:57:35;54.80;;;28.10;;
15183;SDS011;7693;49.266;7.104;2023-02-24T08:00:05;54.33;;;28.30;;
15183;SDS011;7693;49.266;7.104;2023-02-24T08:02:47;105.80;;;47.33;;
15183;SDS011;7693;49.266;7.104;2023-02-24T08:05:17;69.47;;;33.47;;
15183;SDS011;7693;49.266;7.104;2023-02-24T08:07:43;50.83;;;26.07;;
15183;SDS011;7693;49.266;7.104;2023-02-24T08:10:14;50.77;;;25.70;;
15183;SDS011;7693;49.266;7.104;2023-02-24T08:12:52;47.80;;;25.27;;
15183;SDS011;7693;49.266;7.104;2023-02-24T08:15:23;43.00;;;24.10;;
15183;SDS011;7693;49.266;7.104;2023-02-24T08:17:57;39.67;;;21.97;;
15183;SDS011;7693;49.266;7.104;2023-02-24T08:20:24;44.40;;;24.03;;
15183;SDS011;7693;49.266;7.104;2023-02-24T08:22:51;52.90;;;28.10;;
15183;SDS011;7693;49.266;7.104;2023-02-24T08:25:19;51.93;;;28.80;;
15183;SDS011;7693;49.266;7.104;2023-02-24T08:28:03;50.50;;;27.27;;
15183;SDS011;7693;49.266;7.104;2023-02-24T08:30:31;52.07;;;27.03;;
15183;SDS011;7693;49.266;7.104;2023-02-24T08:33:03;49.77;;;28.13;;
15183;SDS011;7693;49.266;7.104;2023-02-24T08:35:35;47.73;;;27.20;;
15183;SDS011;7693;49.266;7.104;2023-02-24T08:38:04;54.43;;;29.37;;
15183;SDS011;7693;49.266;7.104;2023-02-24T08:40:38;55.27;;;28.43;;
15183;SDS011;7693;49.266;7.104;2023-02-24T08:46:00;53.10;;;28.07;;
15183;SDS011;7693;49.266;7.104;2023-02-24T08:48:34;59.07;;;32.10;;
15183;SDS011;7693;49.266;7.104;2023-02-24T08:53:36;50.57;;;28.73;;
15183;SDS011;7693;49.266;7.104;2023-02-24T08:56:05;44.60;;;25.80;;
15183;SDS011;7693;49.266;7.104;2023-02-24T08:58:35;47.67;;;26.07;;
15183;SDS011;7693;49.266;7.104;2023-02-24T09:01:05;38.07;;;21.23;;
15183;SDS011;7693;49.266;7.104;2023-02-24T09:03:42;33.27;;;18.80;;
15183;SDS011;7693;49.266;7.104;2023-02-24T09:06:10;32.47;;;19.37;;
15183;SDS011;7693;49.266;7.104;2023-02-24T09:08:40;32.13;;;19.03;;
15183;SDS011;7693;49.266;7.104;2023-02-24T09:11:09;29.07;;;17.93;;
15183;SDS011;7693;49.266;7.104;2023-02-24T09:13:43;34.80;;;19.80;;
15183;SDS011;7693;49.266;7.104;2023-02-24T09:16:19;30.20;;;18.30;;
15183;SDS011;7693;49.266;7.104;2023-02-24T09:18:47;31.17;;;19.13;;
15183;SDS011;7693;49.266;7.104;2023-02-24T09:21:34;32.10;;;20.07;;
15183;SDS011;7693;49.266;7.104;2023-02-24T09:24:13;36.40;;;19.90;;
15183;SDS011;7693;49.266;7.104;2023-02-24T09:26:50;33.53;;;19.60;;
15183;SDS011;7693;49.266;7.104;2023-02-24T09:29:22;37.60;;;20.83;;
15183;SDS011;7693;49.266;7.104;2023-02-24T09:31:58;31.97;;;19.43;;
15183;SDS011;7693;49.266;7.104;2023-02-24T09:34:35;30.53;;;20.03;;
15183;SDS011;7693;49.266;7.104;2023-02-24T09:37:03;32.67;;;20.20;;
15183;SDS011;7693;49.266;7.104;2023-02-24T09:39:29;31.70;;;19.77;;
15183;SDS011;7693;49.266;7.104;2023-02-24T09:42:20;33.33;;;20.17;;
15183;SDS011;7693;49.266;7.104;2023-02-24T09:44:51;34.40;;;20.83;;
15183;SDS011;7693;49.266;7.104;2023-02-24T09:47:22;38.43;;;20.23;;
15183;SDS011;7693;49.266;7.104;2023-02-24T09:52:54;32.33;;;19.03;;
15183;SDS011;7693;49.266;7.104;2023-02-24T10:04:26;33.83;;;18.73;;
15183;SDS011;7693;49.266;7.104;2023-02-24T10:17:40;32.70;;;18.67;;
15183;SDS011;7693;49.266;7.104;2023-02-24T10:20:15;28.93;;;18.37;;
15183;SDS011;7693;49.266;7.104;2023-02-24T10:22:59;33.37;;;18.73;;
15183;SDS011;7693;49.266;7.104;2023-02-24T10:31:40;35.87;;;24.53;;
15183;SDS011;7693;49.266;7.104;2023-02-24T10:34:12;31.20;;;20.53;;
15183;SDS011;7693;49.266;7.104;2023-02-24T10:36:50;27.50;;;18.83;;
15183;SDS011;7693;49.266;7.104;2023-02-24T10:39:17;27.73;;;19.23;;
15183;SDS011;7693;49.266;7.104;2023-02-24T10:41:59;30.30;;;18.90;;
15183;SDS011;7693;49.266;7.104;2023-02-24T10:44:40;29.47;;;20.37;;
15183;SDS011;7693;49.266;7.104;2023-02-24T10:47:15;32.27;;;20.10;;
15183;SDS011;7693;49.266;7.104;2023-02-24T10:49:48;29.67;;;19.30;;
15183;SDS011;7693;49.266;7.104;2023-02-24T10:52:21;29.00;;;18.43;;
15183;SDS011;7693;49.266;7.104;2023-02-24T10:55:08;29.57;;;18.70;;
15183;SDS011;7693;49.266;7.104;2023-02-24T10:58:34;28.27;;;17.73;;
15183;SDS011;7693;49.266;7.104;2023-02-24T11:00:51;24.83;;;15.93;;
15183;SDS011;7693;49.266;7.104;2023-02-24T16:15:27;11.20;;;8.33;;
15183;SDS011;7693;49.266;7.104;2023-02-24T16:18:03;11.70;;;8.97;;
15183;SDS011;7693;49.266;7.104;2023-02-24T16:20:36;9.90;;;8.77;;
15183;SDS011;7693;49.266;7.104;2023-02-24T16:23:04;10.63;;;8.63;;
15183;SDS011;7693;49.266;7.104;2023-02-24T16:25:33;11.50;;;9.17;;
15183;SDS011;7693;49.266;7.104;2023-02-24T16:28:02;9.80;;;8.80;;
15183;SDS011;7693;49.266;7.104;2023-02-24T16:30:28;12.73;;;9.77;;
15183;SDS011;7693;49.266;7.104;2023-02-24T16:32:55;10.57;;;8.60;;
15183;SDS011;7693;49.266;7.104;2023-02-24T16:35:22;10.80;;;8.53;;
15183;SDS011;7693;49.266;7.104;2023-02-24T16:37:49;11.27;;;8.87;;
15183;SDS011;7693;49.266;7.104;2023-02-24T16:40:25;13.13;;;9.07;;
15183;SDS011;7693;49.266;7.104;2023-02-24T16:42:54;9.23;;;8.17;;
15183;SDS011;7693;49.266;7.104;2023-02-24T16:45:20;12.03;;;9.13;;
15183;SDS011;7693;49.266;7.104;2023-02-24T16:47:49;9.77;;;8.73;;
15183;SDS011;7693;49.266;7.104;2023-02-24T16:50:20;10.20;;;8.60;;
15183;SDS011;7693;49.266;7.104;2023-02-24T16:52:48;10.47;;;9.20;;
15183;SDS011;7693;49.266;7.104;2023-02-24T16:55:14;10.27;;;8.53;;
15183;SDS011;7693;49.266;7.104;2023-02-24T16:57:40;10.53;;;8.90;;
15183;SDS011;7693;49.266;7.104;2023-02-24T17:00:06;9.93;;;8.90;;
15183;SDS011;7693;49.266;7.104;2023-02-24T17:02:33;12.33;;;9.07;;
15183;SDS011;7693;49.266;7.104;2023-02-24T17:04:59;9.67;;;8.67;;
15183;SDS011;7693;49.266;7.104;2023-02-24T17:07:24;11.27;;;8.37;;
15183;SDS011;7693;49.266;7.104;2023-02-24T17:09:50;10.33;;;7.87;;
15183;SDS011;7693;49.266;7.104;2023-02-24T17:12:16;10.47;;;8.80;;
15183;SDS011;7693;49.266;7.104;2023-02-24T17:14:44;11.30;;;9.50;;
15183;SDS011;7693;49.266;7.104;2023-02-24T17:17:10;9.23;;;7.97;;
15183;SDS011;7693;49.266;7.104;2023-02-24T17:19:35;11.90;;;8.20;;
15183;SDS011;7693;49.266;7.104;2023-02-24T17:22:01;11.33;;;8.60;;
15183;SDS011;7693;49.266;7.104;2023-02-24T17:24:28;12.63;;;9.80;;
15183;SDS011;7693;49.266;7.104;2023-02-24T17:26:54;13.43;;;10.60;;
15183;SDS011;7693;49.266;7.104;2023-02-24T17:29:23;9.10;;;8.20;;
15183;SDS011;7693;49.266;7.104;2023-02-24T17:31:49;8.90;;;8.03;;
15183;SDS011;7693;49.266;7.104;2023-02-24T17:34:14;12.30;;;9.97;;
15183;SDS011;7693;49.266;7.104;2023-02-24T17:36:40;12.57;;;9.20;;
15183;SDS011;7693;49.266;7.104;2023-02-24T17:39:05;13.03;;;10.73;;
15183;SDS011;7693;49.266;7.104;2023-02-24T17:41:31;14.23;;;10.23;;
15183;SDS011;7693;49.266;7.104;2023-02-24T17:43:57;15.10;;;11.30;;
15183;SDS011;7693;49.266;7.104;2023-02-24T17:46:22;15.87;;;12.80;;
15183;SDS011;7693;49.266;7.104;2023-02-24T17:48:48;11.97;;;9.70;;
15183;SDS011;7693;49.266;7.104;2023-02-24T17:51:14;11.07;;;9.00;;
15183;SDS011;7693;49.266;7.104;2023-02-24T17:53:41;9.97;;;8.63;;
15183;SDS011;7693;49.266;7.104;2023-02-24T17:56:07;10.70;;;8.27;;
15183;SDS011;7693;49.266;7.104;2023-02-24T17:58:33;9.40;;;8.40;;
15183;SDS011;7693;49.266;7.104;2023-02-24T18:01:00;10.33;;;8.70;;
15183;SDS011;7693;49.266;7.104;2023-02-24T18:03:27;12.67;;;8.60;;
15183;SDS011;7693;49.266;7.104;2023-02-24T18:06:00;9.93;;;8.27;;
15183;SDS011;7693;49.266;7.104;2023-02-24T18:08:43;9.83;;;8.40;;
15183;SDS011;7693;49.266;7.104;2023-02-24T18:11:11;9.80;;;8.80;;
15183;SDS011;7693;49.266;7.104;2023-02-24T18:13:40;12.60;;;8.93;;
15183;SDS011;7693;49.266;7.104;2023-02-24T18:16:09;12.77;;;9.37;;
15183;SDS011;7693;49.266;7.104;2023-02-24T18:18:36;10.43;;;9.03;;
15183;SDS011;7693;49.266;7.104;2023-02-24T18:21:02;11.27;;;8.30;;
15183;SDS011;7693;49.266;7.104;2023-02-24T18:23:29;11.47;;;9.03;;
15183;SDS011;7693;49.266;7.104;2023-02-24T18:25:55;8.83;;;8.00;;
15183;SDS011;7693;49.266;7.104;2023-02-24T18:28:28;11.90;;;7.60;;
15183;SDS011;7693;49.266;7.104;2023-02-24T18:30:54;9.10;;;8.20;;
15183;SDS011;7693;49.266;7.104;2023-02-24T18:33:20;8.90;;;8.00;;
15183;SDS011;7693;49.266;7.104;2023-02-24T18:35:45;9.60;;;8.57;;
15183;SDS011;7693;49.266;7.104;2023-02-24T18:38:11;9.20;;;8.20;;
15183;SDS011;7693;49.266;7.104;2023-02-24T18:40:36;11.10;;;9.20;;
15183;SDS011;7693;49.266;7.104;2023-02-24T18:43:02;8.43;;;7.37;;
15183;SDS011;7693;49.266;7.104;2023-02-24T18:45:29;9.57;;;7.83;;
15183;SDS011;7693;49.266;7.104;2023-02-24T18:47:55;10.27;;;8.83;;
15183;SDS011;7693;49.266;7.104;2023-02-24T18:50:20;12.90;;;9.87;;
15183;SDS011;7693;49.266;7.104;2023-02-24T18:52:49;7.80;;;7.00;;
15183;SDS011;7693;49.266;7.104;2023-02-24T18:55:15;8.43;;;7.53;;
15183;SDS011;7693;49.266;7.104;2023-02-24T18:57:40;10.47;;;7.70;;
15183;SDS011;7693;49.266;7.104;2023-02-24T19:00:06;7.23;;;6.53;;
15183;SDS011;7693;49.266;7.104;2023-02-24T19:02:32;7.07;;;6.37;;
15183;SDS011;7693;49.266;7.104;2023-02-24T19:04:58;6.43;;;5.50;;
15183;SDS011;7693;49.266;7.104;2023-02-24T19:07:24;6.37;;;5.50;;
15183;SDS011;7693;49.266;7.104;2023-02-24T19:09:49;6.97;;;6.37;;
15183;SDS011;7693;49.266;7.104;2023-02-24T19:12:15;5.30;;;4.80;;
15183;SDS011;7693;49.266;7.104;2023-02-24T19:14:41;5.93;;;5.37;;
15183;SDS011;7693;49.266;7.104;2023-02-24T19:17:07;8.03;;;6.60;;
15183;SDS011;7693;49.266;7.104;2023-02-24T19:19:33;5.87;;;5.37;;
15183;SDS011;7693;49.266;7.104;2023-02-24T19:21:59;8.93;;;7.30;;
15183;SDS011;7693;49.266;7.104;2023-02-24T19:24:24;8.73;;;6.90;;
15183;SDS011;7693;49.266;7.104;2023-02-24T19:26:51;4.90;;;4.50;;
15183;SDS011;7693;49.266;7.104;2023-02-24T19:29:17;4.73;;;4.00;;
15183;SDS011;7693;49.266;7.104;2023-02-24T19:31:44;5.57;;;4.37;;
15183;SDS011;7693;49.266;7.104;2023-02-24T19:34:11;5.17;;;3.70;;
15183;SDS011;7693;49.266;7.104;2023-02-24T19:36:37;4.23;;;3.93;;
15183;SDS011;7693;49.266;7.104;2023-02-24T19:39:04;3.90;;;3.60;;
15183;SDS011;7693;49.266;7.104;2023-02-24T19:41:33;3.90;;;3.60;;
15183;SDS011;7693;49.266;7.104;2023-02-24T19:44:00;4.77;;;3.23;;
15183;SDS011;7693;49.266;7.104;2023-02-24T19:46:25;3.33;;;3.13;;
15183;SDS011;7693;49.266;7.104;2023-02-24T19:48:54;4.03;;;3.50;;
15183;SDS011;7693;49.266;7.104;2023-02-24T19:51:21;3.90;;;3.30;;
15183;SDS011;7693;49.266;7.104;2023-02-24T19:53:50;4.93;;;3.57;;
15183;SDS011;7693;49.266;7.104;2023-02-24T19:56:20;3.23;;;2.90;;
15183;SDS011;7693;49.266;7.104;2023-02-24T19:58:53;3.40;;;3.13;;
15183;SDS011;7693;49.266;7.104;2023-02-24T20:01:20;3.43;;;3.03;;
15183;SDS011;7693;49.266;7.104;2023-02-24T20:03:47;4.23;;;3.53;;
15183;SDS011;7693;49.266;7.104;2023-02-24T20:06:32;4.00;;;3.70;;
15183;SDS011;7693;49.266;7.104;2023-02-24T20:09:06;3.80;;;3.50;;
15183;SDS011;7693;49.266;7.104;2023-02-24T20:11:37;3.17;;;2.97;;
15183;SDS011;7693;49.266;7.104;2023-02-24T20:14:04;5.67;;;5.23;;
15183;SDS011;7693;49.266;7.104;2023-02-24T20:16:30;4.23;;;3.93;;
15183;SDS011;7693;49.266;7.104;2023-02-24T20:18:59;5.13;;;3.90;;
15183;SDS011;7693;49.266;7.104;2023-02-24T20:21:25;4.60;;;3.57;;
15183;SDS011;7693;49.266;7.104;2023-02-24T20:23:51;4.13;;;3.87;;
15183;SDS011;7693;49.266;7.104;2023-02-24T20:26:17;4.03;;;3.63;;
15183;SDS011;7693;49.266;7.104;2023-02-24T20:28:44;4.43;;;3.67;;
15183;SDS011;7693;49.266;7.104;2023-02-24T20:31:12;4.13;;;3.83;;
15183;SDS011;7693;49.266;7.104;2023-02-24T20:33:39;8.23;;;7.53;;
15183;SDS011;7693;49.266;7.104;2023-02-24T20:36:14;4.50;;;4.13;;
15183;SDS011;7693;49.266;7.104;2023-02-24T20:38:41;5.10;;;4.73;;
15183;SDS011;7693;49.266;7.104;2023-02-24T20:41:07;5.80;;;5.37;;
15183;SDS011;7693;49.266;7.104;2023-02-24T20:43:33;5.87;;;5.23;;
15183;SDS011;7693;49.266;7.104;2023-02-24T20:45:58;6.10;;;5.00;;
15183;SDS011;7693;49.266;7.104;2023-02-24T20:48:33;4.87;;;4.53;;
15183;SDS011;7693;49.266;7.104;2023-02-24T20:51:01;5.97;;;5.33;;
15183;SDS011;7693;49.266;7.104;2023-02-24T20:53:28;7.97;;;5.23;;
15183;SDS011;7693;49.266;7.104;2023-02-24T20:55:59;7.37;;;6.17;;
15183;SDS011;7693;49.266;7.104;2023-02-24T20:58:29;6.57;;;6.07;;
15183;SDS011;7693;49.266;7.104;2023-02-24T21:00:55;6.30;;;5.70;;
15183;SDS011;7693;49.266;7.104;2023-02-24T21:03:21;6.77;;;6.07;;
15183;SDS011;7693;49.266;7.104;2023-02-24T21:05:48;6.67;;;6.10;;
15183;SDS011;7693;49.266;7.104;2023-02-24T21:08:14;6.47;;;5.87;;
15183;SDS011;7693;49.266;7.104;2023-02-24T21:10:43;6.47;;;5.87;;
15183;SDS011;7693;49.266;7.104;2023-02-24T21:13:09;7.20;;;6.50;;
15183;SDS011;7693;49.266;7.104;2023-02-24T21:15:35;7.00;;;6.40;;
15183;SDS011;7693;49.266;7.104;2023-02-24T21:18:01;8.10;;;6.70;;
15183;SDS011;7693;49.266;7.104;2023-02-24T21:20:27;7.80;;;6.43;;
15183;SDS011;7693;49.266;7.104;2023-02-24T21:22:53;8.10;;;6.93;;
15183;SDS011;7693;49.266;7.104;2023-02-24T21:25:18;9.93;;;7.87;;
15183;SDS011;7693;49.266;7.104;2023-02-24T21:27:44;7.70;;;6.90;;
15183;SDS011;7693;49.266;7.104;2023-02-24T21:30:12;7.27;;;6.60;;
15183;SDS011;7693;49.266;7.104;2023-02-24T21:32:37;11.23;;;7.10;;
15183;SDS011;7693;49.266;7.104;2023-02-24T21:35:03;8.50;;;7.57;;
15183;SDS011;7693;49.266;7.104;2023-02-24T21:37:29;7.67;;;6.97;;
15183;SDS011;7693;49.266;7.104;2023-02-24T21:39:54;10.40;;;7.20;;
15183;SDS011;7693;49.266;7.104;2023-02-24T21:42:20;8.10;;;7.30;;
15183;SDS011;7693;49.266;7.104;2023-02-24T21:44:46;11.17;;;7.93;;
15183;SDS011;7693;49.266;7.104;2023-02-24T21:47:15;9.03;;;8.07;;
15183;SDS011;7693;49.266;7.104;2023-02-24T21:49:41;10.67;;;7.33;;
15183;SDS011;7693;49.266;7.104;2023-02-24T21:52:07;10.43;;;7.07;;
15183;SDS011;7693;49.266;7.104;2023-02-24T21:54:35;10.77;;;7.70;;
15183;SDS011;7693;49.266;7.104;2023-02-24T21:57:01;7.63;;;6.83;;
15183;SDS011;7693;49.266;7.104;2023-02-24T21:59:27;10.93;;;8.30;;
15183;SDS011;7693;49.266;7.104;2023-02-24T22:01:53;8.97;;;7.70;;
15183;SDS011;7693;49.266;7.104;2023-02-24T22:04:18;9.13;;;7.10;;
15183;SDS011;7693;49.266;7.104;2023-02-24T22:06:45;8.20;;;7.40;;
15183;SDS011;7693;49.266;7.104;2023-02-24T22:09:11;8.07;;;7.17;;
15183;SDS011;7693;49.266;7.104;2023-02-24T22:11:44;9.67;;;7.50;;
15183;SDS011;7693;49.266;7.104;2023-02-24T22:14:12;8.73;;;7.83;;
15183;SDS011;7693;49.266;7.104;2023-02-24T22:16:39;9.03;;;7.43;;
15183;SDS011;7693;49.266;7.104;2023-02-24T22:19:05;10.03;;;7.53;;
15183;SDS011;7693;49.266;7.104;2023-02-24T22:21:31;7.90;;;7.10;;
15183;SDS011;7693;49.266;7.104;2023-02-24T22:23:58;8.27;;;7.10;;
15183;SDS011;7693;49.266;7.104;2023-02-24T22:26:25;12.87;;;7.53;;
15183;SDS011;7693;49.266;7.104;2023-02-24T22:28:52;9.37;;;8.20;;
15183;SDS011;7693;49.266;7.104;2023-02-24T22:31:20;12.13;;;8.77;;
15183;SDS011;7693;49.266;7.104;2023-02-24T22:33:47;8.60;;;7.77;;
15183;SDS011;7693;49.266;7.104;2023-02-24T22:36:15;9.83;;;7.80;;
15183;SDS011;7693;49.266;7.104;2023-02-24T22:38:43;9.40;;;7.80;;
15183;SDS011;7693;49.266;7.104;2023-02-24T22:41:13;12.67;;;7.40;;
15183;SDS011;7693;49.266;7.104;2023-02-24T22:43:40;8.57;;;7.27;;
15183;SDS011;7693;49.266;7.104;2023-02-24T22:46:07;12.70;;;7.73;;
15183;SDS011;7693;49.266;7.104;2023-02-24T22:48:36;9.20;;;7.40;;
15183;SDS011;7693;49.266;7.104;2023-02-24T22:51:02;10.80;;;8.00;;
15183;SDS011;7693;49.266;7.104;2023-02-24T22:53:31;10.10;;;7.67;;
15183;SDS011;7693;49.266;7.104;2023-02-24T22:55:58;11.27;;;7.40;;
15183;SDS011;7693;49.266;7.104;2023-02-24T22:58:24;9.83;;;7.40;;
15183;SDS011;7693;49.266;7.104;2023-02-24T23:00:51;8.47;;;7.57;;
15183;SDS011;7693;49.266;7.104;2023-02-24T23:03:19;14.10;;;8.43;;
